Preview of NWS' New Version of Forecast
This preview is not operational and should not be used for support decisions.

Terminal Aerodrome Forecast (TAF)

Issued by National Weather Service (NWS)

                            
000
FTUS42 KCAE 162324
TAFOGB
TAF
KOGB 162324Z 1700/1724 VRB03KT P6SM SKC
     FM171600 04006KT P6SM SCT060=